Detalii statie Girov TCE 3 BRAZI [000011A2]

Toti senzorii

Date Temperatura solului [C]Precipitatii [mm]Voltaj baterie [mV]Leaf Wetness [Min]HC Air temperature [C]HC Relative humidity [%]Punctul de roua [C]
medieminmaxsumaultimatimpmedieminmaxmediemediemin
2019-08-15 19:00:00 0 6962 0 17.29 16.8 17.71 100 17.2 16.8
2019-08-15 20:00:00 0 6834 0 16.5 16.04 16.78 100 16.4 16
2019-08-15 21:00:00 0 6718 0 15.7 15.5 15.91 100 15.6 15.5
2019-08-15 22:00:00 0 6630 0 15.08 14.62 15.44 100 15 14.6
2019-08-15 23:00:00 0 6590 0 13.3 12.19 14.27 100 13.2 12.1
2019-08-16 00:00:00 0 6582 0 12.15 11.93 12.33 100 12.1 11.9
2019-08-16 01:00:00 0 6572 0 11.66 11.04 12.15 100 11.6 11
2019-08-16 02:00:00 0 6562 0 11.05 10.38 11.64 100 11 10.3
2019-08-16 03:00:00 0 6542 0 10.16 9.79 10.57 100 10.1 9.7
2019-08-16 04:00:00 0 6542 0 10.14 9.92 10.34 100 10.1 9.9
2019-08-16 05:00:00 0 6532 0 10.45 10.1 10.85 100 10.4 10.1
2019-08-16 06:00:00 0 6512 0 10.85 10.35 11.3 100 10.8 10.3
2019-08-16 07:00:00 0 6532 0 11.37 11.02 11.77 100 11.3 11
2019-08-16 08:00:00 0 6688 0 12.49 11.71 13.93 100 12.4 11.7
2019-08-16 09:00:00 0 6854 0 14.85 14.14 15.72 100 14.8 14.1
2019-08-16 10:00:00 0 6982 0 17.27 16.09 18.04 100 17.2 16
2019-08-16 11:00:00 0 6992 0 19.31 18.3 19.88 100 19.2 18.3
2019-08-16 12:00:00 0 6992 0 19.89 19.24 21.08 100 19.8 19.2
2019-08-16 13:00:00 0 6992 0 20.96 20.06 22.02 100 20.9 20
2019-08-16 14:00:00 0 6992 0 22.32 20.94 24.71 100 22.2 20.9
2019-08-16 15:00:00 0 6962 0 22.18 20.98 23.56 100 22.1 20.9
2019-08-16 16:00:00 0 6972 0 21.31 20.77 21.97 100 21.2 20.7
2019-08-16 17:00:00 0 6992 0 21.93 20.96 22.4 100 21.8 20.9
2019-08-16 18:00:00 0 6942 0 21.93 21.16 23.31 100 21.8 21.1
2019-08-16 19:00:00 0 6874 0 20.92 19.56 21.99 100 20.8 19.5
2019-08-16 20:00:00 0 6766 0 18.16 16.25 19.34 100 18.1 16.2
2019-08-16 21:00:00 0 6660 0 15.07 13.56 16.23 100 15 13.5
2019-08-16 22:00:00 0 6600 0 13.8 13.64 13.93 100 13.7 13.6
2019-08-16 23:00:00 0 6582 0 13.76 13.49 14.07 100 13.7 13.4
2019-08-17 00:00:00 0 6572 0 12.79 12.55 13.37 100 12.7 12.5
2019-08-17 01:00:00 0 6562 0 13.15 12.53 13.35 100 13.1 12.5
2019-08-17 02:00:00 0 6552 0 13.22 13.03 13.35 100 13.1 13
2019-08-17 03:00:00 0 6542 0 12.5 11.77 13.23 100 12.4 11.7
2019-08-17 04:00:00 0 6542 0 11.2 10.57 11.73 100 11.1 10.5
2019-08-17 05:00:00 0 6522 0 11.01 10.38 11.41 100 10.9 10.3
2019-08-17 06:00:00 0 6512 0 10.64 10.1 11.41 100 10.6 10.1
2019-08-17 07:00:00 0 6522 0 10.64 10.15 11.32 100 10.6 10.1
2019-08-17 08:00:00 0 6678 0 13.14 11.77 14.52 100 13.1 11.7
2019-08-17 09:00:00 0 6932 0 17.82 14.78 20.8 100 17.7 14.7
2019-08-17 10:00:00 0 6992 0 20.86 19.11 23.2 100 20.8 19.1
2019-08-17 11:00:00 0 6992 0 23.57 22.18 24.96 100 23.5 22.1
2019-08-17 12:00:00 0 6992 0 22.67 21.31 25.13 100 22.6 21.3
2019-08-17 13:00:00 0 6992 0 23.26 22.35 25.03 100 23.2 22.3
2019-08-17 14:00:00 0 6992 0 24 22.92 25.09 100 23.9 22.9
2019-08-17 15:00:00 0 6992 0 24.18 22.76 25.37 100 24.1 22.7
2019-08-17 16:00:00 0 6992 0 24.32 23.52 25.8 100 24.3 23.5
2019-08-17 17:00:00 0 6992 0 24.09 23.06 25.24 100 24 23
2019-08-17 18:00:00 0 6982 0 23.29 22.91 24.44 100 23.2 22.9